createdAt,value
2018-03-31T00:01:40.863Z,16.60
2018-03-31T00:04:07.940Z,13.03
2018-03-31T00:06:35.536Z,16.17
2018-03-31T00:09:02.820Z,14.30
2018-03-31T00:11:29.859Z,14.10
2018-03-31T00:13:57.119Z,15.10
2018-03-31T00:16:24.576Z,11.33
2018-03-31T00:18:51.619Z,12.93
2018-03-31T00:21:18.644Z,14.03
2018-03-31T00:23:45.836Z,12.50
2018-03-31T00:26:12.841Z,14.77
2018-03-31T00:28:42.146Z,18.80
2018-03-31T00:31:09.650Z,14.13
2018-03-31T00:33:36.671Z,14.47
2018-03-31T00:36:03.919Z,14.43
2018-03-31T00:38:31.576Z,10.50
2018-03-31T00:40:58.847Z,15.47
2018-03-31T00:43:25.882Z,13.33
2018-03-31T00:45:53.134Z,12.20
2018-03-31T00:48:20.280Z,13.77
2018-03-31T00:50:47.444Z,12.23
2018-03-31T00:53:16.110Z,10.97
2018-03-31T00:55:43.364Z,9.63
2018-03-31T00:58:10.375Z,16.80
2018-03-31T01:00:37.581Z,14.87
2018-03-31T01:03:06.131Z,12.50
2018-03-31T01:05:34.093Z,11.90
2018-03-31T01:08:01.112Z,12.87
2018-03-31T01:10:28.124Z,15.10
2018-03-31T01:12:55.127Z,11.67
2018-03-31T01:15:22.303Z,9.77
2018-03-31T01:17:49.400Z,10.33
2018-03-31T01:20:16.412Z,13.67
2018-03-31T01:22:43.444Z,9.10
2018-03-31T01:25:10.452Z,8.53
2018-03-31T01:27:38.837Z,13.27
2018-03-31T01:30:06.630Z,12.70
2018-03-31T01:32:33.675Z,18.70
2018-03-31T01:35:02.031Z,14.80
2018-03-31T01:37:29.219Z,13.30
2018-03-31T01:39:57.177Z,13.73
2018-03-31T01:42:24.323Z,10.20
2018-03-31T01:44:51.776Z,15.13
2018-03-31T01:47:18.789Z,12.73
2018-03-31T01:49:45.797Z,14.97
2018-03-31T01:52:12.804Z,13.23
2018-03-31T01:54:39.826Z,9.20
2018-03-31T01:57:06.832Z,11.67
2018-03-31T01:59:33.855Z,11.60
2018-03-31T02:02:01.023Z,15.27
2018-03-31T02:04:28.829Z,12.90
2018-03-31T02:06:55.824Z,14.50
2018-03-31T02:09:23.337Z,11.53
2018-03-31T02:11:50.420Z,12.97
2018-03-31T02:14:17.571Z,13.07
2018-03-31T02:16:44.720Z,10.40
2018-03-31T02:19:12.180Z,13.80
2018-03-31T02:21:39.214Z,33.03
2018-03-31T02:24:06.486Z,12.80
2018-03-31T02:26:33.619Z,11.20
2018-03-31T02:29:00.631Z,11.00
2018-03-31T02:31:27.641Z,12.10
2018-03-31T02:33:54.640Z,12.10
2018-03-31T02:36:21.725Z,11.60
2018-03-31T02:38:48.732Z,11.50
2018-03-31T02:41:15.746Z,11.10
2018-03-31T02:43:43.516Z,11.90
2018-03-31T02:46:11.441Z,14.37
2018-03-31T02:48:38.456Z,14.10
2018-03-31T02:51:05.728Z,11.43
2018-03-31T02:53:33.867Z,10.57
2018-03-31T02:56:00.877Z,12.67
2018-03-31T02:58:27.881Z,11.70
2018-03-31T03:00:54.896Z,10.43
2018-03-31T03:03:21.899Z,13.10
2018-03-31T03:05:49.049Z,15.13
2018-03-31T03:08:16.183Z,12.17
2018-03-31T03:10:43.196Z,11.47
2018-03-31T03:13:10.380Z,11.17
2018-03-31T03:15:38.755Z,13.23
2018-03-31T03:18:05.772Z,12.60
2018-03-31T03:20:33.059Z,11.27
2018-03-31T03:23:00.388Z,11.77
2018-03-31T03:25:27.466Z,15.20
2018-03-31T03:27:54.503Z,14.07
2018-03-31T03:30:21.964Z,15.70
2018-03-31T03:32:50.005Z,14.50
2018-03-31T03:35:17.041Z,14.70
2018-03-31T03:37:44.815Z,15.90
2018-03-31T03:40:11.831Z,13.53
2018-03-31T03:42:39.139Z,15.50
2018-03-31T03:45:06.711Z,14.47
2018-03-31T03:47:33.731Z,13.43
2018-03-31T03:50:00.735Z,15.07
2018-03-31T03:52:27.845Z,12.70
2018-03-31T03:54:54.987Z,15.03
2018-03-31T03:57:22.006Z,15.33
2018-03-31T03:59:49.075Z,11.07
2018-03-31T04:02:16.228Z,11.47
2018-03-31T04:04:43.236Z,18.67
2018-03-31T04:07:10.243Z,13.83
2018-03-31T04:09:37.247Z,12.57
2018-03-31T04:12:04.652Z,11.10
2018-03-31T04:14:32.838Z,11.30
2018-03-31T04:17:00.055Z,14.73
2018-03-31T04:19:27.067Z,14.27
2018-03-31T04:21:54.463Z,13.77
2018-03-31T04:24:22.243Z,13.57
2018-03-31T04:26:50.000Z,14.13
2018-03-31T04:29:17.021Z,10.50
2018-03-31T04:31:44.015Z,13.47
2018-03-31T04:34:11.047Z,13.70
2018-03-31T04:36:38.683Z,16.17
2018-03-31T04:39:05.931Z,20.23
2018-03-31T04:41:32.966Z,12.67
2018-03-31T04:44:00.615Z,17.60
2018-03-31T04:46:27.624Z,15.33
2018-03-31T04:48:54.751Z,11.70
2018-03-31T04:51:21.762Z,14.67
2018-03-31T04:53:48.804Z,15.77
2018-03-31T04:56:16.499Z,12.80
2018-03-31T04:58:43.743Z,20.93
2018-03-31T05:01:11.792Z,14.40
2018-03-31T05:03:38.796Z,18.40
2018-03-31T05:06:06.235Z,17.87
2018-03-31T05:08:33.259Z,18.93
2018-03-31T05:11:00.275Z,14.43
2018-03-31T05:13:27.283Z,15.13
2018-03-31T05:15:55.668Z,13.17
2018-03-31T05:18:23.607Z,16.03
2018-03-31T05:20:52.279Z,14.23
2018-03-31T05:23:19.298Z,16.40
2018-03-31T05:25:46.307Z,13.33
2018-03-31T05:28:13.720Z,15.47
2018-03-31T05:30:40.979Z,15.70
2018-03-31T05:33:07.979Z,19.93
2018-03-31T05:35:34.995Z,15.33
2018-03-31T05:38:02.009Z,13.13
2018-03-31T05:40:29.175Z,13.80
2018-03-31T05:42:56.951Z,14.90
2018-03-31T05:45:23.959Z,13.30
2018-03-31T05:47:51.019Z,14.97
2018-03-31T05:50:18.099Z,15.30
2018-03-31T05:52:45.100Z,17.67
2018-03-31T05:55:12.104Z,17.30
2018-03-31T05:57:41.694Z,13.00
2018-03-31T06:00:09.251Z,14.07
2018-03-31T06:02:36.393Z,15.77
2018-03-31T06:05:03.431Z,14.33
2018-03-31T06:07:30.511Z,14.17
2018-03-31T06:09:57.526Z,13.00
2018-03-31T06:12:24.537Z,18.73
2018-03-31T06:14:52.456Z,15.40
2018-03-31T06:17:19.472Z,13.93
2018-03-31T06:19:46.497Z,13.67
2018-03-31T06:22:13.514Z,14.10
2018-03-31T06:24:40.546Z,19.13
2018-03-31T06:27:07.767Z,15.60
2018-03-31T06:29:34.795Z,14.20
2018-03-31T06:32:01.847Z,23.47
2018-03-31T06:34:28.892Z,14.80
2018-03-31T06:36:55.906Z,18.53
2018-03-31T06:39:23.821Z,19.73
2018-03-31T06:41:50.848Z,15.93
2018-03-31T06:44:17.847Z,12.80
2018-03-31T06:46:44.917Z,13.50
2018-03-31T06:49:13.027Z,16.03
2018-03-31T06:51:40.047Z,14.50
2018-03-31T06:54:07.048Z,17.37
2018-03-31T06:56:34.271Z,17.43
2018-03-31T06:59:02.261Z,17.40
2018-03-31T07:01:29.278Z,15.90
2018-03-31T07:03:57.128Z,13.63
2018-03-31T07:06:24.151Z,19.97
2018-03-31T07:08:51.451Z,15.67
2018-03-31T07:11:18.531Z,18.30
2018-03-31T07:13:45.755Z,16.23
2018-03-31T07:16:12.785Z,16.27
2018-03-31T07:18:39.872Z,16.70
2018-03-31T07:21:07.204Z,24.00
2018-03-31T07:23:35.349Z,12.83
2018-03-31T07:26:02.415Z,16.23
2018-03-31T07:28:29.596Z,17.53
2018-03-31T07:30:56.629Z,14.43
2018-03-31T07:33:23.691Z,14.47
2018-03-31T07:35:51.707Z,18.13
2018-03-31T07:38:18.719Z,12.63
2018-03-31T07:40:45.798Z,18.23
2018-03-31T07:43:12.770Z,17.10
2018-03-31T07:45:39.811Z,16.00
2018-03-31T07:48:06.840Z,19.30
2018-03-31T07:50:33.852Z,16.70
2018-03-31T07:53:00.880Z,18.80
2018-03-31T07:55:28.000Z,18.83
2018-03-31T07:57:55.049Z,14.90
2018-03-31T08:00:22.055Z,17.40
2018-03-31T08:02:49.091Z,15.10
2018-03-31T08:05:16.190Z,16.17
2018-03-31T08:07:43.212Z,17.50
2018-03-31T08:10:10.227Z,14.30
2018-03-31T08:12:37.246Z,18.80
2018-03-31T08:15:04.258Z,14.67
2018-03-31T08:17:31.886Z,16.27
2018-03-31T08:19:58.907Z,22.03
2018-03-31T08:22:26.874Z,17.10
2018-03-31T08:24:55.535Z,18.03
2018-03-31T08:27:22.787Z,14.73
2018-03-31T08:29:49.828Z,15.30
2018-03-31T08:32:16.876Z,16.40
2018-03-31T08:34:44.780Z,14.23
2018-03-31T08:37:12.581Z,19.17
2018-03-31T08:39:39.597Z,20.87
2018-03-31T08:42:08.283Z,15.17
2018-03-31T08:44:36.220Z,16.63
2018-03-31T08:47:03.766Z,24.03
2018-03-31T08:49:31.735Z,15.70
2018-03-31T08:51:58.779Z,16.33
2018-03-31T08:54:25.942Z,19.50
2018-03-31T08:56:53.083Z,16.73
2018-03-31T08:59:20.228Z,13.27
2018-03-31T09:01:47.236Z,18.13
2018-03-31T09:04:14.484Z,12.27
2018-03-31T09:06:42.599Z,17.73
2018-03-31T09:09:09.703Z,15.60
2018-03-31T09:11:37.554Z,15.03
2018-03-31T09:14:04.552Z,20.27
2018-03-31T09:16:31.832Z,24.67
2018-03-31T09:18:58.872Z,19.57
2018-03-31T09:21:25.884Z,18.50
2018-03-31T09:23:52.949Z,17.17
2018-03-31T09:26:19.953Z,18.90
2018-03-31T09:28:47.166Z,23.10
2018-03-31T09:31:14.399Z,21.40
2018-03-31T09:33:41.476Z,26.23
2018-03-31T09:36:08.696Z,26.40
2018-03-31T09:38:36.643Z,22.10
2018-03-31T09:41:04.346Z,22.73
2018-03-31T09:43:31.441Z,20.93
2018-03-31T09:45:58.452Z,16.20
2018-03-31T09:48:25.460Z,17.63
2018-03-31T09:50:52.477Z,14.87
2018-03-31T09:53:19.487Z,18.90
2018-03-31T09:55:46.688Z,19.70
2018-03-31T09:58:13.980Z,15.30
2018-03-31T10:00:43.514Z,15.60
2018-03-31T10:03:10.714Z,16.33
2018-03-31T10:05:37.747Z,20.53
2018-03-31T10:08:05.326Z,24.20
2018-03-31T10:10:32.345Z,22.10
2018-03-31T10:12:59.352Z,17.77
2018-03-31T10:15:26.559Z,19.50
2018-03-31T10:17:55.131Z,18.80
2018-03-31T10:20:22.139Z,21.20
2018-03-31T10:22:49.452Z,25.50
2018-03-31T10:25:16.486Z,23.45
2018-03-31T10:27:43.742Z,23.47
2018-03-31T10:30:10.887Z,20.13
2018-03-31T10:32:38.051Z,23.40
2018-03-31T10:35:05.072Z,27.20
2018-03-31T10:37:32.152Z,27.23
2018-03-31T10:39:59.172Z,33.03
2018-03-31T10:42:26.184Z,30.47
2018-03-31T10:44:53.199Z,30.83
2018-03-31T10:47:20.221Z,26.83
2018-03-31T10:49:47.776Z,25.80
2018-03-31T10:52:15.852Z,26.33
2018-03-31T10:54:43.010Z,26.43
2018-03-31T10:57:10.751Z,24.90
2018-03-31T10:59:37.909Z,23.30
2018-03-31T11:02:05.704Z,23.33
2018-03-31T11:04:32.924Z,26.80
2018-03-31T11:06:59.973Z,20.47
2018-03-31T11:09:27.240Z,24.47
2018-03-31T11:11:54.281Z,23.80
2018-03-31T11:14:21.858Z,23.40
2018-03-31T11:16:48.885Z,24.00
2018-03-31T11:19:15.897Z,28.63
2018-03-31T11:21:42.915Z,24.63
2018-03-31T11:24:09.936Z,26.50
2018-03-31T11:26:36.966Z,25.20
2018-03-31T11:29:04.119Z,29.97
2018-03-31T11:31:31.145Z,26.60
2018-03-31T11:33:58.151Z,23.40
2018-03-31T11:36:26.097Z,21.87
2018-03-31T11:38:53.223Z,22.70
2018-03-31T11:41:20.252Z,25.47
2018-03-31T11:43:47.828Z,25.40
2018-03-31T11:46:14.843Z,28.80
2018-03-31T11:48:41.852Z,22.47
2018-03-31T11:51:08.967Z,25.30
2018-03-31T11:53:36.052Z,25.27
2018-03-31T11:56:03.082Z,22.13
2018-03-31T11:58:30.095Z,27.97
2018-03-31T12:00:57.130Z,24.30
2018-03-31T12:03:24.405Z,26.43
2018-03-31T12:05:52.100Z,24.30
2018-03-31T12:08:20.036Z,29.27
2018-03-31T12:10:47.087Z,23.03
2018-03-31T12:13:14.995Z,28.73
2018-03-31T12:15:42.788Z,23.20
2018-03-31T12:18:10.695Z,29.60
2018-03-31T12:20:38.209Z,33.73
2018-03-31T12:23:05.284Z,30.90
2018-03-31T12:25:33.195Z,26.00
2018-03-31T12:28:01.428Z,30.10
2018-03-31T12:30:28.449Z,27.93
2018-03-31T12:32:55.482Z,25.20
2018-03-31T12:35:22.488Z,24.87
2018-03-31T12:37:49.534Z,27.27
2018-03-31T12:40:16.560Z,26.57
2018-03-31T12:42:43.582Z,26.33
2018-03-31T12:45:10.595Z,23.77
2018-03-31T12:47:38.243Z,27.57
2018-03-31T12:50:05.294Z,26.53
2018-03-31T12:52:33.415Z,26.27
2018-03-31T12:55:00.424Z,29.57
2018-03-31T12:57:27.449Z,24.10
2018-03-31T12:59:54.476Z,26.70
2018-03-31T13:02:21.492Z,22.83
2018-03-31T13:04:48.511Z,28.67
2018-03-31T13:07:15.524Z,29.40
2018-03-31T13:09:42.964Z,25.60
2018-03-31T13:12:10.112Z,28.17
2018-03-31T13:14:37.408Z,27.60
2018-03-31T13:17:05.462Z,25.70
2018-03-31T13:19:32.496Z,27.17
2018-03-31T13:22:01.015Z,28.73
2018-03-31T13:24:28.931Z,26.67
2018-03-31T13:26:55.956Z,26.90
2018-03-31T13:29:23.183Z,27.20
2018-03-31T13:31:50.175Z,25.63
2018-03-31T13:34:17.198Z,25.20
2018-03-31T13:36:44.203Z,32.13
2018-03-31T13:39:12.444Z,26.47
2018-03-31T13:41:39.852Z,32.47
2018-03-31T13:44:06.868Z,26.77
2018-03-31T13:46:34.386Z,34.90
2018-03-31T13:49:02.795Z,24.60
2018-03-31T13:51:30.032Z,33.63
2018-03-31T13:53:58.541Z,24.70
2018-03-31T13:56:26.983Z,25.50
2018-03-31T13:58:54.230Z,23.37
2018-03-31T14:01:21.403Z,19.30
2018-03-31T14:03:48.430Z,20.97
2018-03-31T14:06:15.697Z,22.80
2018-03-31T14:08:43.700Z,27.43
2018-03-31T14:11:11.323Z,25.80
2018-03-31T14:13:39.388Z,23.63
2018-03-31T14:16:06.417Z,20.13
2018-03-31T14:18:33.591Z,21.23
2018-03-31T14:21:00.739Z,24.20
2018-03-31T14:23:27.764Z,20.17
2018-03-31T14:25:55.039Z,24.40
2018-03-31T14:28:22.188Z,24.23
2018-03-31T14:30:49.201Z,19.60
2018-03-31T14:33:16.203Z,26.77
2018-03-31T14:35:43.979Z,26.33
2018-03-31T14:38:11.011Z,23.73
2018-03-31T14:40:38.053Z,21.63
2018-03-31T14:43:06.181Z,20.03
2018-03-31T14:45:33.187Z,26.20
2018-03-31T14:48:00.247Z,23.00
2018-03-31T14:50:27.455Z,21.83
2018-03-31T14:52:54.568Z,25.57
2018-03-31T14:55:21.747Z,21.80
2018-03-31T14:57:48.771Z,19.67
2018-03-31T15:00:15.779Z,23.00
2018-03-31T15:02:42.816Z,19.03
2018-03-31T15:05:10.591Z,21.83
2018-03-31T15:07:37.805Z,21.07
2018-03-31T15:10:05.286Z,20.83
2018-03-31T15:12:33.069Z,20.60
2018-03-31T15:15:00.093Z,21.33
2018-03-31T15:17:27.872Z,22.90
2018-03-31T15:19:54.884Z,21.87
2018-03-31T15:22:21.931Z,18.97
2018-03-31T15:24:48.984Z,21.47
2018-03-31T15:27:16.763Z,18.13
2018-03-31T15:29:43.779Z,20.27
2018-03-31T15:32:10.805Z,20.97
2018-03-31T15:34:37.991Z,21.20
2018-03-31T15:37:05.260Z,17.93
2018-03-31T15:39:32.276Z,21.60
2018-03-31T15:41:59.314Z,23.00
2018-03-31T15:44:28.107Z,21.47
2018-03-31T15:46:55.141Z,23.10
2018-03-31T15:49:22.430Z,21.47
2018-03-31T15:51:50.947Z,24.40
2018-03-31T15:54:17.956Z,22.60
2018-03-31T15:56:44.980Z,25.10
2018-03-31T15:59:12.239Z,21.20
2018-03-31T16:01:40.243Z,24.07
2018-03-31T16:04:07.688Z,26.93
2018-03-31T16:06:34.706Z,26.83
2018-03-31T16:09:01.747Z,27.53
2018-03-31T16:11:28.918Z,27.43
2018-03-31T16:13:57.108Z,23.70
2018-03-31T16:16:24.219Z,24.87
2018-03-31T16:18:51.227Z,22.37
2018-03-31T16:21:18.442Z,22.20
2018-03-31T16:23:46.963Z,21.77
2018-03-31T16:26:13.963Z,17.57
2018-03-31T16:28:42.610Z,21.93
2018-03-31T16:31:09.611Z,36.23
2018-03-31T16:33:39.161Z,36.23
2018-03-31T16:36:06.313Z,33.17
2018-03-31T16:38:34.114Z,19.87
2018-03-31T16:41:01.118Z,23.80
2018-03-31T16:43:28.136Z,15.20
2018-03-31T16:45:56.240Z,22.03
2018-03-31T16:48:23.520Z,18.90
2018-03-31T16:50:50.535Z,16.40
2018-03-31T16:53:17.564Z,14.73
2018-03-31T16:55:44.579Z,21.97
2018-03-31T16:58:11.651Z,17.63
2018-03-31T17:00:38.782Z,17.87
2018-03-31T17:03:06.935Z,20.47
2018-03-31T17:05:33.982Z,16.97
2018-03-31T17:08:02.252Z,19.83
2018-03-31T17:10:29.679Z,19.00
2018-03-31T17:12:56.855Z,15.97
2018-03-31T17:15:23.995Z,17.03
2018-03-31T17:17:51.020Z,16.90
2018-03-31T17:20:18.326Z,18.33
2018-03-31T17:22:45.339Z,18.27
2018-03-31T17:25:12.590Z,19.50
2018-03-31T17:27:40.078Z,22.40
2018-03-31T17:30:07.201Z,20.90
2018-03-31T17:32:34.607Z,26.00
2018-03-31T17:35:01.630Z,35.53
2018-03-31T17:37:28.631Z,22.90
2018-03-31T17:39:55.698Z,23.80
2018-03-31T17:42:22.715Z,21.17
2018-03-31T17:44:49.732Z,23.23
2018-03-31T17:47:16.936Z,20.60
2018-03-31T17:49:43.996Z,25.20
2018-03-31T17:52:11.008Z,23.17
2018-03-31T17:54:38.830Z,31.97
2018-03-31T17:57:06.248Z,26.40
2018-03-31T17:59:35.410Z,24.03
2018-03-31T18:02:02.427Z,24.73
2018-03-31T18:04:29.463Z,23.53
2018-03-31T18:06:57.315Z,30.10
2018-03-31T18:09:24.349Z,26.60
2018-03-31T18:11:52.026Z,27.73
2018-03-31T18:14:19.036Z,34.77
2018-03-31T18:16:46.052Z,35.70
2018-03-31T18:19:13.575Z,38.80
2018-03-31T18:21:40.748Z,38.93
2018-03-31T18:24:08.144Z,38.10
2018-03-31T18:26:35.147Z,39.13
2018-03-31T18:29:02.932Z,40.30
2018-03-31T18:31:31.856Z,42.37
2018-03-31T18:33:58.868Z,41.60
2018-03-31T18:36:25.891Z,45.50
2018-03-31T18:38:53.009Z,37.67
2018-03-31T18:41:20.067Z,32.97
2018-03-31T18:43:47.340Z,34.40
2018-03-31T18:46:15.120Z,30.53
2018-03-31T18:48:43.141Z,26.83
2018-03-31T18:51:10.165Z,31.20
2018-03-31T18:53:37.364Z,24.90
2018-03-31T18:56:04.499Z,25.47
2018-03-31T18:58:31.522Z,25.33
2018-03-31T19:00:58.965Z,26.13
2018-03-31T19:03:26.036Z,31.50
2018-03-31T19:05:55.235Z,23.73
2018-03-31T19:08:22.487Z,29.27
2018-03-31T19:10:49.903Z,30.77
2018-03-31T19:13:17.015Z,34.30
2018-03-31T19:15:44.033Z,22.00
2018-03-31T19:18:11.084Z,21.50
2018-03-31T19:20:38.489Z,20.47
2018-03-31T19:23:05.512Z,18.67
2018-03-31T19:25:35.504Z,16.27
2018-03-31T19:28:02.527Z,19.07
2018-03-31T19:30:35.923Z,17.20
2018-03-31T19:33:03.122Z,17.80
2018-03-31T19:35:36.039Z,15.67
2018-03-31T19:38:03.228Z,18.90
2018-03-31T19:40:30.244Z,16.67
2018-03-31T19:42:58.120Z,16.87
2018-03-31T19:45:25.118Z,16.17
2018-03-31T19:47:52.156Z,16.23
2018-03-31T19:50:20.100Z,17.53
2018-03-31T19:52:47.356Z,18.83
2018-03-31T19:55:14.504Z,19.47
2018-03-31T19:57:41.669Z,20.20
2018-03-31T20:00:10.183Z,20.27
2018-03-31T20:02:38.218Z,17.03
2018-03-31T20:05:05.295Z,18.80
2018-03-31T20:07:32.323Z,21.13
2018-03-31T20:09:59.356Z,18.47
2018-03-31T20:12:26.396Z,18.40
2018-03-31T20:14:53.539Z,16.93
2018-03-31T20:17:20.561Z,16.53
2018-03-31T20:19:47.582Z,21.97
2018-03-31T20:22:15.396Z,19.77
2018-03-31T20:24:43.800Z,18.47
2018-03-31T20:27:10.819Z,17.33
2018-03-31T20:29:38.048Z,24.43
2018-03-31T20:32:05.076Z,18.33
2018-03-31T20:34:32.096Z,18.50
2018-03-31T20:37:00.061Z,14.40
2018-03-31T20:39:27.489Z,20.53
2018-03-31T20:41:54.944Z,19.00
2018-03-31T20:44:22.928Z,27.30
2018-03-31T20:46:50.172Z,19.40
2018-03-31T20:49:17.315Z,19.63
2018-03-31T20:51:44.471Z,22.70
2018-03-31T20:54:11.487Z,20.90
2018-03-31T20:56:38.504Z,23.53
2018-03-31T20:59:05.530Z,22.13
2018-03-31T21:01:32.527Z,21.23
2018-03-31T21:03:59.543Z,25.57
2018-03-31T21:06:26.957Z,22.43
2018-03-31T21:08:54.208Z,26.70
2018-03-31T21:11:22.810Z,26.23
2018-03-31T21:13:49.854Z,20.17
2018-03-31T21:16:18.285Z,22.90
2018-03-31T21:18:45.296Z,24.07
2018-03-31T21:21:13.328Z,23.03
2018-03-31T21:23:40.484Z,22.77
2018-03-31T21:26:07.631Z,27.70
2018-03-31T21:28:35.351Z,25.90
2018-03-31T21:31:04.169Z,23.10
2018-03-31T21:33:31.238Z,22.50
2018-03-31T21:35:58.483Z,22.60
2018-03-31T21:38:25.643Z,26.17
2018-03-31T21:40:52.663Z,23.67
2018-03-31T21:43:20.552Z,22.43
2018-03-31T21:45:47.610Z,26.50
2018-03-31T21:48:15.047Z,23.53
2018-03-31T21:50:42.055Z,24.10
2018-03-31T21:53:09.363Z,22.97
2018-03-31T21:55:36.504Z,24.00
2018-03-31T21:58:03.646Z,21.43
2018-03-31T22:00:31.168Z,29.47
2018-03-31T22:02:58.729Z,30.67
2018-03-31T22:05:25.759Z,26.53
2018-03-31T22:07:52.990Z,23.53
2018-03-31T22:10:20.923Z,27.80
2018-03-31T22:12:47.928Z,28.23
2018-03-31T22:15:20.495Z,24.80
2018-03-31T22:17:47.508Z,26.57
2018-03-31T22:20:15.838Z,24.83
2018-03-31T22:22:42.850Z,23.07
2018-03-31T22:25:11.483Z,23.80
2018-03-31T22:27:38.496Z,21.53
2018-03-31T22:30:05.779Z,20.83
2018-03-31T22:32:32.831Z,24.00
2018-03-31T22:34:59.844Z,20.67
2018-03-31T22:37:26.851Z,20.00
2018-03-31T22:39:53.885Z,17.20
2018-03-31T22:42:20.936Z,25.40
2018-03-31T22:44:48.335Z,17.90
2018-03-31T22:47:15.532Z,20.87
2018-03-31T22:49:42.545Z,18.13
2018-03-31T22:52:10.045Z,17.63
2018-03-31T22:54:37.088Z,20.07
2018-03-31T22:57:04.112Z,16.13
2018-03-31T22:59:31.281Z,17.83
2018-03-31T23:01:59.219Z,17.30
2018-03-31T23:04:26.491Z,17.50
2018-03-31T23:06:54.131Z,16.50
2018-03-31T23:09:21.404Z,19.20
2018-03-31T23:11:48.440Z,15.43
2018-03-31T23:14:15.479Z,19.47
2018-03-31T23:16:42.491Z,15.57
2018-03-31T23:19:09.503Z,19.90
2018-03-31T23:21:36.519Z,23.00
2018-03-31T23:24:03.800Z,22.13
2018-03-31T23:26:31.758Z,31.33
2018-03-31T23:28:59.212Z,30.73
2018-03-31T23:31:26.232Z,30.50
2018-03-31T23:33:59.665Z,36.20
2018-03-31T23:36:27.575Z,35.93
2018-03-31T23:38:55.339Z,35.13
2018-03-31T23:41:23.254Z,34.60
2018-03-31T23:43:50.416Z,32.77
2018-03-31T23:46:18.657Z,41.90
2018-03-31T23:48:45.838Z,34.70
2018-03-31T23:51:12.855Z,36.17
2018-03-31T23:53:39.868Z,35.80
2018-03-31T23:56:07.286Z,32.87
2018-03-31T23:58:34.298Z,34.43
